Houston's Hourly Summary for Friday, July 6, 2018
Hour Temp
(f)
RH
(%)
Solar Rad.
(MJ/m2)
Rainfall
(in)
Wind
(mph)
7/6/2018 12:00 AM 77 76 0 0.07 1.48
7/6/2018 1:00 AM 75 81 0 0.05 0.3
7/6/2018 2:00 AM 73 88 0 0.02 0
7/6/2018 3:00 AM 73 93 0 0.02 0
7/6/2018 4:00 AM 73 93 0 0 0
7/6/2018 5:00 AM 72 94 0 0 0
7/6/2018 6:00 AM 72 94 0 0 0
7/6/2018 7:00 AM 72 93 0.04 0 0
7/6/2018 8:00 AM 76 75 0.51 0 0.87
7/6/2018 9:00 AM 79 68 1.14 0 3.13
7/6/2018 10:00 AM 81 64 1.83 0 3.34
7/6/2018 11:00 AM 83 61 2.44 0 3.59
7/6/2018 12:00 PM 85 55 2.45 0 4.02
7/6/2018 1:00 PM 87 50 3.15 0 5.37
7/6/2018 2:00 PM 88 48 3.03 0 5.05
7/6/2018 3:00 PM 89 46 2.56 0 4.71
7/6/2018 4:00 PM 88 48 2.12 0 4.83
7/6/2018 5:00 PM 88 46 1.28 0 5.07
7/6/2018 6:00 PM 87 54 1 0 4.54
7/6/2018 7:00 PM 86 57 0.32 0 3.48
7/6/2018 8:00 PM 85 59 0.1 0 1.57
7/6/2018 9:00 PM 81 69 0.01 0 0.22
7/6/2018 10:00 PM 79 78 0 0 0
7/6/2018 11:00 PM 78 78 0 0.01 0.96
Data Summary 80 69 21.98 0.17 2.19